M I D A S
Marine Information and Data Acquisition System
Tripno 921 of the Zeeleeuw from 2005-06-24 07:29:11 to 2005-06-24 13:46:21
Back to CruiseResearch ActivitiesStationsMapUnderway DataData graphs

EquipmentUnitsComment
TimeDGPSUTC
LatitudeDGPSDM.mWGS84
LongitudeDGPSDM.mWGS84
HeadingGyrodeg 
SOGDGPSknotsSpeed over ground
COGDGPSdegCourse over ground
DepthEcho soundermeters200 kHz
Missing or incorrect values are displayed as -999
Navigation data collected by the RV Zeeleeuw from 2005-06-24 07:30:35 to 2005-06-24 15:58:47
                                                                                    Next 1000 lines
Time Latitude Longitude Heading SOG COG Depth
2005-06-24 07:30:45 51°13.598 2°56.101 114.6 1.2 286 5
2005-06-24 07:30:49 51°13.599 2°56.099 115.2 1.3 285 5.1
2005-06-24 07:30:55 51°13.6 2°56.094 116.1 1.8 291 -999
2005-06-24 07:31:01 51°13.601 2°56.09 116.9 2 293 -999
2005-06-24 07:31:05 51°13.603 2°56.086 118.3 2.1 295 -999
2005-06-24 07:31:11 51°13.604 2°56.081 119.8 2.3 297 -999
2005-06-24 07:31:15 51°13.605 2°56.077 121.1 2.4 299 -999
2005-06-24 07:31:21 51°13.608 2°56.071 122.1 2.6 299 -999
2005-06-24 07:31:25 51°13.61 2°56.066 122.9 2.9 302 -999
2005-06-24 07:31:30 51°13.613 2°56.06 123.5 2.9 302 -999
2005-06-24 07:31:36 51°13.615 2°56.052 123.8 3.4 303 -999
2005-06-24 07:31:41 51°13.618 2°56.045 123.1 3.8 301 -999
2005-06-24 07:31:45 51°13.621 2°56.037 121.9 3.9 301 -999
2005-06-24 07:31:51 51°13.623 2°56.029 120.8 4.1 298 -999
2005-06-24 07:31:56 51°13.626 2°56.019 120.1 4.1 298 -999
2005-06-24 07:32:00 51°13.629 2°56.013 119.4 4.3 297 -999
2005-06-24 07:32:05 51°13.631 2°56.004 119.2 4.3 297 -999
2005-06-24 07:32:11 51°13.634 2°55.994 119.1 4.4 296 -999
2005-06-24 07:32:15 51°13.637 2°55.986 119.2 4.5 296 -999
2005-06-24 07:32:21 51°13.64 2°55.976 119.7 4.6 297 -999
2005-06-24 07:32:26 51°13.643 2°55.966 120.1 4.8 296 -999
2005-06-24 07:32:31 51°13.646 2°55.955 120.1 5 296 -999
2005-06-24 07:32:35 51°13.649 2°55.946 120 5.1 296 -999
2005-06-24 07:32:41 51°13.653 2°55.935 120.2 5.2 296 -999
2005-06-24 07:32:45 51°13.656 2°55.925 120.4 5.2 296 -999
2005-06-24 07:32:51 51°13.659 2°55.914 120.5 5.2 296 -999
2005-06-24 07:32:55 51°13.662 2°55.904 120.5 5.2 296 -999
2005-06-24 07:33:00 51°13.665 2°55.894 120.3 5.3 296 -999
2005-06-24 07:33:06 51°13.668 2°55.883 119.7 5.3 296 -999
2005-06-24 07:33:11 51°13.671 2°55.872 118.9 5.2 296 -999
2005-06-24 07:33:15 51°13.674 2°55.864 117.8 5.1 295 -999
2005-06-24 07:33:21 51°13.677 2°55.852 116.8 4.9 294 -999
2005-06-24 07:33:25 51°13.679 2°55.844 115.6 4.8 293 -999
2005-06-24 07:33:31 51°13.682 2°55.833 114.5 4.7 293 -999
2005-06-24 07:33:35 51°13.684 2°55.826 113.2 4.5 291 -999
2005-06-24 07:33:40 51°13.686 2°55.816 111.9 4.4 291 -999
2005-06-24 07:33:45 51°13.688 2°55.806 110.4 4.4 291 -999
2005-06-24 07:33:51 51°13.69 2°55.796 109 4.4 288 -999
2005-06-24 07:33:55 51°13.691 2°55.788 107.4 4.4 288 -999
2005-06-24 07:34:01 51°13.693 2°55.778 105.9 4.4 285 -999
2005-06-24 07:34:05 51°13.694 2°55.77 104.1 4.2 283 -999
2005-06-24 07:34:09 51°13.695 2°55.764 102.4 3.7 283 -999
2005-06-24 07:34:15 51°13.695 2°55.758 100.6 2.9 282 -999
2005-06-24 07:34:21 51°13.697 2°55.756 97.2 1.9 284 -999
2005-06-24 07:34:25 51°13.698 2°55.755 92.1 1 294 -999
2005-06-24 07:34:31 51°13.698 2°55.756 86.1 0.5 351 -999
2005-06-24 07:34:35 51°13.699 2°55.757 79.3 0.7 39 -999
2005-06-24 07:34:41 51°13.7 2°55.757 73.3 0.8 28 -999
2005-06-24 07:34:45 51°13.7 2°55.756 70.1 0.5 22 4.8
2005-06-24 07:34:50 51°13.7 2°55.755 66.5 0.5 22 5
2005-06-24 07:34:55 51°13.699 2°55.752 63.8 0.9 253 4.9
2005-06-24 07:34:59 51°13.698 2°55.749 61.1 1.5 252 10.5
2005-06-24 07:35:05 51°13.697 2°55.745 58.7 1.5 248 10.5
2005-06-24 07:35:10 51°13.697 2°55.743 57.4 1.5 244 10.6
2005-06-24 07:35:15 51°13.697 2°55.742 55.9 0.9 253 10.7
2005-06-24 07:35:20 51°13.698 2°55.741 54.3 0.6 258 10.8
2005-06-24 07:35:25 51°13.699 2°55.742 49.8 1 14 11
2005-06-24 07:35:29 51°13.702 2°55.743 41.6 1.5 18 11
2005-06-24 07:35:35 51°13.705 2°55.745 33.3 2.3 13 11
2005-06-24 07:35:39 51°13.709 2°55.745 24.6 2.8 9 10.8
2005-06-24 07:35:45 51°13.715 2°55.745 16 3.4 1 10.6
2005-06-24 07:35:49 51°13.719 2°55.743 7.3 3.7 354 10.6
2005-06-24 07:35:54 51°13.725 2°55.74 358.4 4 347 10.2
2005-06-24 07:36:00 51°13.731 2°55.735 349.8 4 347 9.8
2005-06-24 07:36:05 51°13.736 2°55.731 343.3 4 330 9.1
2005-06-24 07:36:09 51°13.74 2°55.728 336.2 3.9 329 8.7
2005-06-24 07:36:15 51°13.745 2°55.722 333.1 4.1 326 8.3
2005-06-24 07:36:20 51°13.75 2°55.716 331.2 4.3 326 8.3
2005-06-24 07:36:25 51°13.756 2°55.71 330.1 4.6 324 8.2
2005-06-24 07:36:30 51°13.762 2°55.703 329.5 4.9 324 8.2
2005-06-24 07:36:35 51°13.768 2°55.696 329.3 5.3 326 8.2
2005-06-24 07:36:40 51°13.775 2°55.689 329.6 5.3 326 8.1
2005-06-24 07:36:45 51°13.782 2°55.682 330.6 6 329 8.2
2005-06-24 07:36:50 51°13.789 2°55.676 331.3 6.2 329 8.2
2005-06-24 07:36:55 51°13.797 2°55.668 331.6 6.2 329 8.3
2005-06-24 07:36:59 51°13.803 2°55.662 330.8 6.7 328 8.3
2005-06-24 07:37:05 51°13.813 2°55.651 330.5 6.7 328 8.3
2005-06-24 07:37:10 51°13.821 2°55.644 330.5 6.8 327 8.6
2005-06-24 07:37:15 51°13.829 2°55.636 330.8 6.9 328 8.6
2005-06-24 07:37:19 51°13.836 2°55.628 331.3 7 328 8.5
2005-06-24 07:37:25 51°13.846 2°55.619 332.3 7 329 8.5
2005-06-24 07:37:29 51°13.853 2°55.612 333.8 7.1 330 8.6
2005-06-24 07:37:35 51°13.863 2°55.604 335.9 7.1 330 8.6
2005-06-24 07:37:40 51°13.874 2°55.597 338.6 7.3 334 8.4
2005-06-24 07:37:45 51°13.882 2°55.591 340.1 7.6 336 8.6
2005-06-24 07:37:49 51°13.891 2°55.585 341.1 7.8 337 8.6
2005-06-24 07:37:55 51°13.902 2°55.578 342.6 7.9 338 8.6
2005-06-24 07:37:59 51°13.911 2°55.573 343.2 8 339 8.5
2005-06-24 07:38:05 51°13.924 2°55.564 342.8 8.1 338 9
2005-06-24 07:38:09 51°13.932 2°55.559 342.9 8.1 338 8.7
2005-06-24 07:38:15 51°13.944 2°55.551 343.3 8.1 338 9.1
2005-06-24 07:38:20 51°13.956 2°55.543 343.3 8.1 338 9.6
2005-06-24 07:38:25 51°13.966 2°55.536 342.8 8.1 338 9.5
2005-06-24 07:38:30 51°13.977 2°55.53 343.2 8.4 338 9.8
2005-06-24 07:38:35 51°13.987 2°55.523 344 8.4 339 9.8
2005-06-24 07:38:40 51°13.999 2°55.516 343.8 8.4 339 10
2005-06-24 07:38:45 51°14.01 2°55.509 343.3 8.4 338 9.8
2005-06-24 07:38:49 51°14.019 2°55.504 343.7 8.4 339 9.7
2005-06-24 07:38:55 51°14.032 2°55.496 343.8 8.4 339 9.8
2005-06-24 07:39:00 51°14.042 2°55.489 343.5 8.4 339 9.8
2005-06-24 07:39:05 51°14.053 2°55.482 343.5 8.4 339 8.8
2005-06-24 07:39:10 51°14.063 2°55.476 343.8 8.4 339 9.2
2005-06-24 07:39:15 51°14.074 2°55.469 343.3 8.4 338 9.4
2005-06-24 07:39:20 51°14.085 2°55.462 343.1 8.4 338 9.1
2005-06-24 07:39:25 51°14.097 2°55.454 342.3 8.6 336 9.2
2005-06-24 07:39:30 51°14.107 2°55.446 341.4 8.6 336 8.9
2005-06-24 07:39:35 51°14.117 2°55.438 340.6 8.7 335 8.9
2005-06-24 07:39:40 51°14.129 2°55.429 340.2 8.7 335 9.1
2005-06-24 07:39:45 51°14.14 2°55.419 338.9 8.7 335 9.2
2005-06-24 07:39:50 51°14.15 2°55.41 337.5 9 331 10
2005-06-24 07:39:55 51°14.161 2°55.4 335.6 9.1 330 9.4
2005-06-24 07:40:00 51°14.172 2°55.389 334.5 9.2 329 9.3
2005-06-24 07:40:05 51°14.184 2°55.377 333.4 9.4 328 10
2005-06-24 07:40:10 51°14.194 2°55.364 332.4 9.4 326 8.8
2005-06-24 07:40:15 51°14.204 2°55.352 330.1 9.1 323 9.4
2005-06-24 07:40:19 51°14.21 2°55.344 327.5 8.8 321 9.5
2005-06-24 07:40:25 51°14.222 2°55.328 325 8.5 319 9.4
2005-06-24 07:40:30 51°14.229 2°55.317 322.9 8.3 317 9.6
2005-06-24 07:40:35 51°14.237 2°55.304 321.5 8.2 316 9.3
2005-06-24 07:40:40 51°14.245 2°55.29 320.1 8 315 9.6
2005-06-24 07:40:45 51°14.252 2°55.276 318.6 7.9 312 9.5
2005-06-24 07:40:50 51°14.259 2°55.265 317.1 7.8 312 9.4
2005-06-24 07:40:55 51°14.266 2°55.252 316.4 7.8 312 9.4
2005-06-24 07:41:00 51°14.273 2°55.238 316.1 7.6 311 9.5
2005-06-24 07:41:05 51°14.28 2°55.225 315.8 7.6 311 9.5
2005-06-24 07:41:09 51°14.286 2°55.215 315.8 7.7 311 9.4
2005-06-24 07:41:15 51°14.294 2°55.2 315.9 8 311 9.7
2005-06-24 07:41:20 51°14.302 2°55.185 316.3 8.2 312 9.6
2005-06-24 07:41:25 51°14.31 2°55.171 316.1 8.5 310 9
2005-06-24 07:41:30 51°14.318 2°55.156 315.7 8.6 311 9.2
2005-06-24 07:41:35 51°14.325 2°55.143 315.7 8.9 311 9.1
2005-06-24 07:41:40 51°14.335 2°55.126 316.5 9 312 9
2005-06-24 07:41:45 51°14.344 2°55.111 317.4 9.2 313 9.1
2005-06-24 07:41:50 51°14.352 2°55.097 317.6 9.4 312 9
2005-06-24 07:41:55 51°14.361 2°55.081 317.9 9.6 314 9.1
2005-06-24 07:42:00 51°14.37 2°55.065 318.4 9.9 313 9
2005-06-24 07:42:05 51°14.381 2°55.046 318.1 10.3 312 9
2005-06-24 07:42:09 51°14.389 2°55.031 317.4 10.7 310 9.1
2005-06-24 07:42:15 51°14.401 2°55.009 316.4 10.8 310 9.1
2005-06-24 07:42:20 51°14.411 2°54.99 316 10.8 310 9.1
2005-06-24 07:42:25 51°14.421 2°54.97 316 11.4 310 9.1
2005-06-24 07:42:29 51°14.429 2°54.952 315.3 11.7 309 9.2
2005-06-24 07:42:35 51°14.44 2°54.928 314.3 12.2 307 9.1
2005-06-24 07:42:40 51°14.45 2°54.905 314.1 12.4 306 9.1
2005-06-24 07:42:45 51°14.461 2°54.879 313.2 12.8 303 9.2
2005-06-24 07:42:50 51°14.469 2°54.856 311.3 13.1 301 9
2005-06-24 07:42:55 51°14.478 2°54.831 310.1 13.2 300 9
2005-06-24 07:43:00 51°14.488 2°54.803 309.9 13.2 300 8.9
2005-06-24 07:43:05 51°14.496 2°54.776 308.6 13.4 296 9
2005-06-24 07:43:10 51°14.502 2°54.747 306.2 13.5 295 9.2
2005-06-24 07:43:15 51°14.509 2°54.719 302.6 13.7 290 8.9
2005-06-24 07:43:20 51°14.515 2°54.69 299.6 13.7 290 9
2005-06-24 07:43:25 51°14.52 2°54.66 297.4 13.9 286 9
2005-06-24 07:43:30 51°14.524 2°54.633 295.5 13.9 286 9
2005-06-24 07:43:35 51°14.527 2°54.602 293 14 281 8.9
2005-06-24 07:43:41 51°14.531 2°54.566 289.8 14 281 9
2005-06-24 07:43:45 51°14.532 2°54.54 286.9 14 281 9.3
2005-06-24 07:43:50 51°14.533 2°54.509 283.5 14.2 273 9.4
2005-06-24 07:43:55 51°14.532 2°54.477 280.9 14.2 270 9
2005-06-24 07:44:00 51°14.529 2°54.443 276.5 14.3 266 9
2005-06-24 07:44:05 51°14.525 2°54.412 270.9 14.3 261 8.9
2005-06-24 07:44:10 51°14.52 2°54.381 266.3 14.3 258 8.9
2005-06-24 07:44:15 51°14.515 2°54.354 262 14.3 258 8.9
2005-06-24 07:44:20 51°14.507 2°54.321 259.4 14.4 252 8.9
2005-06-24 07:44:25 51°14.5 2°54.291 256.5 14.4 250 8.9
2005-06-24 07:44:29 51°14.494 2°54.267 254.8 14.4 248 8.9
2005-06-24 07:44:35 51°14.485 2°54.235 252 14.4 247 8.8
2005-06-24 07:44:40 51°14.475 2°54.204 250.5 14.4 247 8.7
2005-06-24 07:44:45 51°14.467 2°54.178 248.9 14.5 244 8.4
2005-06-24 07:44:49 51°14.459 2°54.152 247.7 14.5 244 8.3
2005-06-24 07:44:55 51°14.448 2°54.119 246.5 14.5 244 8.3
2005-06-24 07:45:00 51°14.438 2°54.091 245.9 14.4 242 8.3
2005-06-24 07:45:05 51°14.429 2°54.066 245.2 14.4 242 8.3
2005-06-24 07:45:09 51°14.42 2°54.041 244.9 14.5 241 8.3
2005-06-24 07:45:15 51°14.409 2°54.006 244.6 14.5 241 8.2
2005-06-24 07:45:20 51°14.399 2°53.978 245 14.5 242 8.2
2005-06-24 07:45:25 51°14.39 2°53.95 245.6 14.6 242 8.2
2005-06-24 07:45:30 51°14.382 2°53.924 246.5 14.6 243 8.2
2005-06-24 07:45:35 51°14.373 2°53.895 247.2 14.6 244 8.2
2005-06-24 07:45:40 51°14.363 2°53.863 248 14.6 244 8.2
2005-06-24 07:45:45 51°14.353 2°53.835 247.6 14.6 242 8.3
2005-06-24 07:45:50 51°14.343 2°53.807 246.6 14.6 242 8.2
2005-06-24 07:45:55 51°14.334 2°53.782 245.5 14.6 240 8.2
2005-06-24 07:46:01 51°14.321 2°53.748 244 14.6 239 8.2
2005-06-24 07:46:05 51°14.311 2°53.724 242.9 14.6 239 8.2
2005-06-24 07:46:10 51°14.301 2°53.7 241.6 14.6 237 8.2
2005-06-24 07:46:15 51°14.29 2°53.673 240.6 14.6 237 8.2
2005-06-24 07:46:20 51°14.277 2°53.643 239.8 14.6 236 8.2
2005-06-24 07:46:25 51°14.266 2°53.617 239 14.6 236 8.2
2005-06-24 07:46:29 51°14.257 2°53.595 238.7 14.7 236 8.2
2005-06-24 07:46:35 51°14.243 2°53.563 239 14.7 236 8.2
2005-06-24 07:46:40 51°14.233 2°53.535 239.5 14.7 237 8.2
2005-06-24 07:46:45 51°14.222 2°53.507 241.1 14.7 237 8.2
2005-06-24 07:46:50 51°14.212 2°53.479 242.7 14.7 241 8.2
2005-06-24 07:46:55 51°14.204 2°53.453 244.3 14.7 241 8.2
2005-06-24 07:47:00 51°14.193 2°53.422 245.4 14.7 242 8.2
2005-06-24 07:47:05 51°14.184 2°53.396 246.2 14.7 242 8.3
2005-06-24 07:47:09 51°14.176 2°53.37 246.7 14.7 242 8.3
2005-06-24 07:47:15 51°14.164 2°53.335 246.7 14.8 242 8.3
2005-06-24 07:47:19 51°14.156 2°53.312 246.5 14.8 241 8.4
2005-06-24 07:47:25 51°14.144 2°53.278 245.6 14.8 240 8.4
2005-06-24 07:47:30 51°14.134 2°53.253 244.8 14.8 240 8.4
2005-06-24 07:47:35 51°14.123 2°53.225 243.5 14.9 238 8.5
2005-06-24 07:47:40 51°14.111 2°53.195 242.2 14.9 238 8.4
2005-06-24 07:47:45 51°14.099 2°53.167 241.4 14.9 237 8.5
2005-06-24 07:47:50 51°14.088 2°53.14 240.8 14.9 237 8.5
2005-06-24 07:47:55 51°14.076 2°53.112 240.3 14.9 237 8.5
2005-06-24 07:48:00 51°14.065 2°53.084 240.2 14.9 237 8.6
2005-06-24 07:48:05 51°14.054 2°53.056 240.7 14.9 237 8.6
2005-06-24 07:48:09 51°14.046 2°53.034 241.7 15 238 8.7
2005-06-24 07:48:15 51°14.034 2°53.002 242.9 15 239 8.7
2005-06-24 07:48:20 51°14.023 2°52.97 243.8 15 241 8.7
2005-06-24 07:48:25 51°14.014 2°52.944 244.5 15 240 8.7
2005-06-24 07:48:30 51°14.002 2°52.913 244.8 15 240 8.8
2005-06-24 07:48:35 51°13.993 2°52.887 245.1 15 240 8.9
2005-06-24 07:48:40 51°13.981 2°52.855 244.7 15 240 8.9
2005-06-24 07:48:45 51°13.971 2°52.827 244.3 15.1 239 8.9
2005-06-24 07:48:50 51°13.961 2°52.801 243.5 15.1 238 8.9
2005-06-24 07:48:55 51°13.95 2°52.773 242.8 15 238 9
2005-06-24 07:49:00 51°13.938 2°52.745 241.9 15 237 9
2005-06-24 07:49:05 51°13.926 2°52.715 241.2 15 237 9
2005-06-24 07:49:10 51°13.914 2°52.687 240.9 15.1 237 9
2005-06-24 07:49:15 51°13.903 2°52.659 240.9 15.1 237 9
2005-06-24 07:49:20 51°13.892 2°52.631 241 15.1 237 9
2005-06-24 07:49:25 51°13.881 2°52.602 241.7 15 238 9
2005-06-24 07:49:29 51°13.873 2°52.579 242.4 15 240 9
2005-06-24 07:49:35 51°13.861 2°52.547 243.4 15.1 239 9
2005-06-24 07:49:40 51°13.85 2°52.516 244.1 15.1 239 9
2005-06-24 07:49:45 51°13.84 2°52.49 244.6 15.1 239 9.1
2005-06-24 07:49:49 51°13.831 2°52.464 244.5 15.1 240 9.1
2005-06-24 07:49:55 51°13.818 2°52.43 244.3 15.1 240 9.1
2005-06-24 07:50:00 51°13.807 2°52.402 243.8 15 239 9.1
2005-06-24 07:50:05 51°13.797 2°52.376 243.2 15 239 9.2
2005-06-24 07:50:09 51°13.787 2°52.351 242.4 15.1 238 9.1
2005-06-24 07:50:15 51°13.773 2°52.317 242 15 238 9.1
2005-06-24 07:50:20 51°13.761 2°52.289 241.4 15.1 237 9.1
2005-06-24 07:50:25 51°13.75 2°52.262 241.3 15.1 238 9.1
2005-06-24 07:50:30 51°13.74 2°52.236 241.6 15 237 9.1
2005-06-24 07:50:35 51°13.729 2°52.208 241.6 15.1 238 9.1
2005-06-24 07:50:40 51°13.717 2°52.176 242.4 15.1 238 9.2
2005-06-24 07:50:45 51°13.707 2°52.148 243.2 15.1 239 9.2
2005-06-24 07:50:49 51°13.698 2°52.125 243.5 15.1 239 9.2
2005-06-24 07:50:55 51°13.685 2°52.09 243.5 15.1 239 9.2
2005-06-24 07:51:00 51°13.674 2°52.061 243.6 15.1 239 9.2
2005-06-24 07:51:05 51°13.665 2°52.035 243.7 15.2 239 9.2
2005-06-24 07:51:10 51°13.652 2°52.005 243.6 15.2 239 9.2
2005-06-24 07:51:15 51°13.642 2°51.979 243 15.2 239 9.2
2005-06-24 07:51:20 51°13.631 2°51.951 242.6 15.2 238 9.2
2005-06-24 07:51:25 51°13.619 2°51.919 242.4 15.2 238 9.2
2005-06-24 07:51:30 51°13.608 2°51.891 242.3 15.2 238 9.2
2005-06-24 07:51:35 51°13.598 2°51.865 242.5 15.2 239 9.2
2005-06-24 07:51:40 51°13.586 2°51.834 242.9 15.2 239 9.2
2005-06-24 07:51:45 51°13.575 2°51.805 242.9 15.2 239 9.2
2005-06-24 07:51:50 51°13.564 2°51.776 243.1 15.2 239 9.2
2005-06-24 07:51:55 51°13.553 2°51.747 243.3 15.2 239 9.3
2005-06-24 07:51:59 51°13.545 2°51.724 243.5 15.2 239 9.3
2005-06-24 07:52:05 51°13.532 2°51.69 243.8 15.2 239 9.3
2005-06-24 07:52:10 51°13.522 2°51.663 244.1 15.2 239 9.3
2005-06-24 07:52:15 51°13.511 2°51.635 244 15.2 239 9.3
2005-06-24 07:52:20 51°13.499 2°51.603 244.1 15.2 239 9.4
2005-06-24 07:52:25 51°13.488 2°51.575 243.8 15.2 239 9.4
2005-06-24 07:52:29 51°13.479 2°51.552 243.1 15.2 238 9.4
2005-06-24 07:52:35 51°13.465 2°51.518 242.4 15.2 238 9.4
2005-06-24 07:52:40 51°13.455 2°51.493 242 15.2 237 9.4
2005-06-24 07:52:45 51°13.442 2°51.462 241.4 15.2 237 9.4
2005-06-24 07:52:50 51°13.431 2°51.433 241 15.2 237 9.4
2005-06-24 07:52:55 51°13.421 2°51.408 240.9 15.2 237 9.4
2005-06-24 07:53:00 51°13.408 2°51.377 241.2 15.2 237 9.4
2005-06-24 07:53:05 51°13.397 2°51.348 240.9 15.2 237 9.4
2005-06-24 07:53:10 51°13.386 2°51.323 241.5 15.2 238 9.4
2005-06-24 07:53:15 51°13.375 2°51.295 242 15.2 238 9.5
2005-06-24 07:53:20 51°13.363 2°51.263 242.4 15.2 239 9.4
2005-06-24 07:53:25 51°13.352 2°51.235 242.9 15.2 239 9.4
2005-06-24 07:53:29 51°13.343 2°51.212 243.1 15.2 239 9.4
2005-06-24 07:53:35 51°13.331 2°51.18 243.1 15.2 238 9.4
2005-06-24 07:53:40 51°13.319 2°51.15 243 15.2 238 9.5
2005-06-24 07:53:45 51°13.307 2°51.121 242.6 15.2 238 9.5
2005-06-24 07:53:50 51°13.297 2°51.095 242.4 15.3 238 9.5
2005-06-24 07:53:55 51°13.285 2°51.064 242.4 15.2 238 9.5
2005-06-24 07:54:00 51°13.275 2°51.038 242.1 15.2 238 9.5
2005-06-24 07:54:05 51°13.262 2°51.007 242.1 15.3 238 9.5
2005-06-24 07:54:09 51°13.253 2°50.985 242.1 15.2 238 9.5
2005-06-24 07:54:15 51°13.241 2°50.953 242.3 15.2 238 9.5
2005-06-24 07:54:19 51°13.232 2°50.93 242.7 15.2 238 9.5
2005-06-24 07:54:25 51°13.218 2°50.893 242.9 15.2 238 9.5
2005-06-24 07:54:29 51°13.209 2°50.87 243.1 15.2 238 9.5
2005-06-24 07:54:35 51°13.195 2°50.835 243.1 15.3 238 9.5
2005-06-24 07:54:40 51°13.184 2°50.807 242.8 15.2 238 9.6
2005-06-24 07:54:45 51°13.173 2°50.779 242.4 15.2 238 9.6
2005-06-24 07:54:49 51°13.164 2°50.756 241.9 15.2 238 9.6
2005-06-24 07:54:55 51°13.15 2°50.722 241.6 15.3 237 9.6
2005-06-24 07:55:01 51°13.137 2°50.691 241.6 15.3 237 9.5
2005-06-24 07:55:05 51°13.127 2°50.665 241.6 15.3 238 9.6
2005-06-24 07:55:09 51°13.118 2°50.642 241.7 15.3 238 9.6
2005-06-24 07:55:15 51°13.105 2°50.611 242.4 15.3 238 9.6
2005-06-24 07:55:20 51°13.093 2°50.579 242.4 15.3 238 9.6
2005-06-24 07:55:25 51°13.082 2°50.551 242.7 15.3 238 9.7
2005-06-24 07:55:29 51°13.073 2°50.528 242.7 15.3 238 9.7
2005-06-24 07:55:35 51°13.059 2°50.493 242.7 15.2 239 9.6
2005-06-24 07:55:39 51°13.052 2°50.473 242.3 15.3 238 9.7
2005-06-24 07:55:45 51°13.037 2°50.436 242.2 15.3 238 9.7
2005-06-24 07:55:49 51°13.028 2°50.414 242.1 15.3 237 9.7
2005-06-24 07:55:55 51°13.014 2°50.379 241.6 15.3 237 9.7
2005-06-24 07:56:00 51°13.003 2°50.354 241.2 15.2 237 9.7
2005-06-24 07:56:05 51°12.99 2°50.323 241 15.3 237 9.7
2005-06-24 07:56:10 51°12.98 2°50.297 241.6 15.3 237 9.7
2005-06-24 07:56:15 51°12.968 2°50.269 241.7 15.3 237 9.7
2005-06-24 07:56:19 51°12.96 2°50.246 242.4 15.3 238 9.7
2005-06-24 07:56:25 51°12.945 2°50.208 242.7 15.3 238 9.7
2005-06-24 07:56:29 51°12.937 2°50.186 242.8 15.3 238 9.7
2005-06-24 07:56:35 51°12.923 2°50.151 242.8 15.3 238 9.7
2005-06-24 07:56:40 51°12.912 2°50.123 242.4 15.3 238 9.8
2005-06-24 07:56:45 51°12.9 2°50.095 242.1 15.3 237 9.8
2005-06-24 07:56:49 51°12.891 2°50.072 241.5 15.3 237 9.8
2005-06-24 07:56:55 51°12.878 2°50.041 241.2 15.3 237 9.7
2005-06-24 07:56:59 51°12.869 2°50.018 241.3 15.3 237 9.7
2005-06-24 07:57:05 51°12.854 2°49.981 241.5 15.3 238 9.7
2005-06-24 07:57:10 51°12.844 2°49.955 241.9 15.3 238 9.7
2005-06-24 07:57:15 51°12.833 2°49.926 242.4 15.3 238 9.7
2005-06-24 07:57:20 51°12.821 2°49.895 242.7 15.3 238 9.8
2005-06-24 07:57:25 51°12.81 2°49.869 242.9 15.3 239 9.8
2005-06-24 07:57:30 51°12.799 2°49.84 243 15.3 239 9.8
2005-06-24 07:57:35 51°12.788 2°49.812 242.9 15.3 239 9.8
2005-06-24 07:57:39 51°12.779 2°49.788 242.4 15.3 238 9.8
2005-06-24 07:57:45 51°12.764 2°49.751 241.9 15.3 238 9.8
2005-06-24 07:57:49 51°12.755 2°49.728 242 15.3 238 9.8
2005-06-24 07:57:55 51°12.743 2°49.697 242 15.3 238 9.7
2005-06-24 07:58:00 51°12.732 2°49.668 242.5 15.3 239 9.8
2005-06-24 07:58:05 51°12.72 2°49.636 242.6 15.3 239 9.8
2005-06-24 07:58:09 51°12.711 2°49.614 242.6 15.3 238 9.8
2005-06-24 07:58:15 51°12.698 2°49.582 242.1 15.3 238 9.8
2005-06-24 07:58:19 51°12.688 2°49.556 242 15.3 238 9.8
2005-06-24 07:58:25 51°12.675 2°49.522 242.3 15.2 238 9.8
2005-06-24 07:58:30 51°12.665 2°49.496 242.3 15.3 238 9.8
2005-06-24 07:58:35 51°12.652 2°49.464 242.2 15.3 238 9.8
2005-06-24 07:58:39 51°12.645 2°49.444 242 15.3 238 9.8
2005-06-24 07:58:45 51°12.63 2°49.407 242 15.3 238 9.8
2005-06-24 07:58:50 51°12.62 2°49.381 242.4 15.3 239 9.8
2005-06-24 07:58:55 51°12.609 2°49.352 242.8 15.3 239 9.8
2005-06-24 07:58:59 51°12.599 2°49.326 243 15.3 239 9.8
2005-06-24 07:59:05 51°12.586 2°49.291 243.1 15.3 239 9.9
2005-06-24 07:59:10 51°12.576 2°49.265 243.1 15.3 239 9.9
2005-06-24 07:59:15 51°12.564 2°49.234 242.8 15.3 239 9.9
2005-06-24 07:59:20 51°12.552 2°49.205 242.4 15.3 239 9.8
2005-06-24 07:59:25 51°12.541 2°49.176 242 15.3 238 9.8
2005-06-24 07:59:29 51°12.532 2°49.154 241.9 15.3 238 9.8
2005-06-24 07:59:35 51°12.519 2°49.119 241.6 15.3 238 9.8
2005-06-24 07:59:40 51°12.507 2°49.091 241.7 15.3 238 9.7
2005-06-24 07:59:45 51°12.496 2°49.062 241.9 15.3 238 9.8
2005-06-24 07:59:50 51°12.486 2°49.037 242.4 15.2 238 9.7
2005-06-24 07:59:55 51°12.475 2°49.008 242.7 15.2 238 9.7
2005-06-24 08:00:00 51°12.463 2°48.977 242.7 15.2 238 9.7
2005-06-24 08:00:05 51°12.452 2°48.948 242.8 15.2 238 9.7
2005-06-24 08:00:09 51°12.443 2°48.925 242.7 15.2 238 9.7
2005-06-24 08:00:15 51°12.431 2°48.894 242.6 15.2 239 9.7
2005-06-24 08:00:20 51°12.42 2°48.865 242.7 15.2 239 9.7
2005-06-24 08:00:25 51°12.408 2°48.834 242.7 15.2 238 9.7
2005-06-24 08:00:30 51°12.396 2°48.806 242.5 15.2 238 9.7
2005-06-24 08:00:35 51°12.385 2°48.777 242.2 15.2 238 9.6
2005-06-24 08:00:39 51°12.376 2°48.755 241.6 15.2 238 9.7
2005-06-24 08:00:45 51°12.363 2°48.721 241.6 15.2 238 9.7
2005-06-24 08:00:50 51°12.352 2°48.693 241.6 15.2 238 9.7
2005-06-24 08:00:55 51°12.342 2°48.668 242.1 15.1 238 9.7
2005-06-24 08:01:00 51°12.331 2°48.639 242.2 15.1 238 9.7
2005-06-24 08:01:05 51°12.32 2°48.607 242.8 15.1 238 9.7
2005-06-24 08:01:09 51°12.311 2°48.584 243.5 15.1 238 9.7
2005-06-24 08:01:15 51°12.299 2°48.549 244.5 15.1 238 9.7
2005-06-24 08:01:20 51°12.289 2°48.521 245.1 15 241 9.7
2005-06-24 08:01:25 51°12.279 2°48.492 245.3 15.1 241 9.7
2005-06-24 08:01:30 51°12.27 2°48.465 245.8 15 241 9.7
2005-06-24 08:01:35 51°12.258 2°48.433 245.7 15 241 9.7
2005-06-24 08:01:40 51°12.248 2°48.405 245.3 15 241 9.7
2005-06-24 08:01:45 51°12.237 2°48.376 244.7 15 241 9.7
2005-06-24 08:01:49 51°12.229 2°48.354 244.2 15 239 9.7
2005-06-24 08:01:55 51°12.216 2°48.319 243.5 15 239 9.7
2005-06-24 08:02:00 51°12.205 2°48.291 243.2 15 239 9.8
2005-06-24 08:02:05 51°12.195 2°48.263 243.3 15 239 9.7
2005-06-24 08:02:10 51°12.184 2°48.234 243.1 15 239 9.7
2005-06-24 08:02:15 51°12.173 2°48.206 243.1 15 239 9.7
2005-06-24 08:02:20 51°12.163 2°48.177 243.3 15 239 9.6
2005-06-24 08:02:25 51°12.152 2°48.149 243.6 15 240 9.7
2005-06-24 08:02:30 51°12.142 2°48.12 243.9 15 241 9.7
2005-06-24 08:02:35 51°12.133 2°48.094 244.5 15 240 9.6
2005-06-24 08:02:40 51°12.123 2°48.065 244.7 15 240 9.7
2005-06-24 08:02:45 51°12.112 2°48.033 244.9 15 240 9.7
2005-06-24 08:02:49 51°12.104 2°48.01 244.8 15 240 9.7
2005-06-24 08:02:55 51°12.092 2°47.978 244.9 15 241 9.7
2005-06-24 08:03:00 51°12.082 2°47.949 245.1 15 241 9.7
2005-06-24 08:03:05 51°12.071 2°47.917 245.1 15 241 9.7
2005-06-24 08:03:09 51°12.063 2°47.894 245 15 241 9.6
2005-06-24 08:03:15 51°12.052 2°47.862 245 15 241 9.7
2005-06-24 08:03:19 51°12.044 2°47.839 245.3 15 242 9.6
2005-06-24 08:03:25 51°12.031 2°47.801 245.9 15 242 9.6
2005-06-24 08:03:30 51°12.023 2°47.774 246.3 15 242 9.6
2005-06-24 08:03:35 51°12.013 2°47.745 246.6 15 243 9.6
2005-06-24 08:03:39 51°12.006 2°47.721 247.2 15 243 9.6
2005-06-24 08:03:45 51°11.993 2°47.683 247.5 15 243 9.6
2005-06-24 08:03:49 51°11.986 2°47.659 247.5 15 243 9.6
2005-06-24 08:03:55 51°11.975 2°47.627 247.3 15 243 9.6
2005-06-24 08:04:00 51°11.964 2°47.595 247 15 242 9.6
2005-06-24 08:04:05 51°11.955 2°47.566 246.5 15 242 9.6
2005-06-24 08:04:10 51°11.946 2°47.539 246 15 242 9.6
2005-06-24 08:04:15 51°11.936 2°47.511 245.7 15 242 9.6
2005-06-24 08:04:20 51°11.925 2°47.478 245.5 15 241 9.6
2005-06-24 08:04:25 51°11.915 2°47.449 245.4 15 241 9.6
2005-06-24 08:04:30 51°11.906 2°47.423 245.4 15 242 9.6
2005-06-24 08:04:35 51°11.896 2°47.394 245.9 15 242 9.6
2005-06-24 08:04:40 51°11.886 2°47.362 246 15 243 9.6
2005-06-24 08:04:45 51°11.876 2°47.332 246.6 15 243 9.6
2005-06-24 08:04:50 51°11.866 2°47.303 246.7 15 242 9.5
2005-06-24 08:04:55 51°11.858 2°47.277 246.7 15 242 9.5
2005-06-24 08:05:00 51°11.847 2°47.244 246.7 15 242 9.5
2005-06-24 08:05:05 51°11.837 2°47.215 246.3 15 242 9.5
2005-06-24 08:05:10 51°11.828 2°47.189 246 15 242 9.4
2005-06-24 08:05:15 51°11.818 2°47.157 245.8 15 242 9.5
2005-06-24 08:05:20 51°11.808 2°47.128 245.8 15 242 9.4
2005-06-24 08:05:25 51°11.799 2°47.101 245.9 14.9 242 9.4
2005-06-24 08:05:30 51°11.789 2°47.072 246.1 15 242 9.4
2005-06-24 08:05:35 51°11.779 2°47.043 246.1 15 242 9.4
2005-06-24 08:05:40 51°11.769 2°47.011 246.3 15 242 9.4
2005-06-24 08:05:45 51°11.759 2°46.981 246.7 15 242 9.4
2005-06-24 08:05:50 51°11.751 2°46.954 246.8 15 243 9.4
2005-06-24 08:05:55 51°11.74 2°46.922 246.8 15 243 9.4
2005-06-24 08:06:01 51°11.73 2°46.889 246.8 15 243 9.3
2005-06-24 08:06:05 51°11.723 2°46.862 247.6 15 243 9.4
2005-06-24 08:06:09 51°11.717 2°46.838 249.7 15 243 9.3
2005-06-24 08:06:15 51°11.708 2°46.8 252.2 15 243 9.4
2005-06-24 08:06:20 51°11.701 2°46.77 253.9 15 243 9.4
2005-06-24 08:06:25 51°11.694 2°46.738 255.5 15 243 9.4
2005-06-24 08:06:29 51°11.689 2°46.713 256.5 15 251 9.5
2005-06-24 08:06:35 51°11.682 2°46.679 257.2 14.9 252 9.5
2005-06-24 08:06:39 51°11.677 2°46.653 257.4 15 252 9.6
2005-06-24 08:06:45 51°11.668 2°46.613 257.5 15 252 9.6
2005-06-24 08:06:49 51°11.663 2°46.587 257.2 15 251 9.7
2005-06-24 08:06:55 51°11.655 2°46.553 256.4 15 251 9.7
2005-06-24 08:07:00 51°11.648 2°46.52 255.8 15 250 9.8
2005-06-24 08:07:05 51°11.641 2°46.488 255.4 15 250 9.8
2005-06-24 08:07:10 51°11.634 2°46.46 255.2 15 250 9.9
2005-06-24 08:07:15 51°11.626 2°46.426 255.1 15 250 9.9
2005-06-24 08:07:19 51°11.621 2°46.401 255.1 15 250 9.9
2005-06-24 08:07:25 51°11.612 2°46.364 255.1 15 250 9.9
2005-06-24 08:07:30 51°11.605 2°46.333 255.4 15 250 10
2005-06-24 08:07:35 51°11.598 2°46.301 255.5 15 251 10
2005-06-24 08:07:39 51°11.594 2°46.28 255.7 14.9 251 10
2005-06-24 08:07:45 51°11.585 2°46.239 256 15 251 10.1
2005-06-24 08:07:50 51°11.578 2°46.211 256 14.9 250 10.1
2005-06-24 08:07:55 51°11.571 2°46.177 255.6 14.9 250 10.1
2005-06-24 08:08:00 51°11.564 2°46.146 255.4 14.9 250 10.1
2005-06-24 08:08:05 51°11.557 2°46.115 255.2 14.9 250 10.1
2005-06-24 08:08:09 51°11.551 2°46.09 255.1 14.9 250 10.1
2005-06-24 08:08:15 51°11.544 2°46.056 254.9 15 250 10
2005-06-24 08:08:20 51°11.536 2°46.022 254.8 15 250 10.1
2005-06-24 08:08:25 51°11.529 2°45.991 254.7 15 250 10.1
2005-06-24 08:08:29 51°11.524 2°45.966 255.3 14.9 251 10
2005-06-24 08:08:35 51°11.517 2°45.932 256.2 15 252 10.1
2005-06-24 08:08:40 51°11.51 2°45.897 257.5 15 252 10.1
2005-06-24 08:08:45 51°11.504 2°45.865 257.8 14.9 253 10.1
2005-06-24 08:08:49 51°11.499 2°45.84 258.6 14.9 254 10.1
2005-06-24 08:08:55 51°11.493 2°45.802 259.2 14.9 254 10.2
2005-06-24 08:09:00 51°11.487 2°45.77 259.3 14.9 254 10.2
2005-06-24 08:09:05 51°11.481 2°45.738 259.3 15 254 10.2
2005-06-24 08:09:10 51°11.475 2°45.707 259.1 15 254 10.2
2005-06-24 08:09:15 51°11.47 2°45.678 258.8 15 253 10.2
2005-06-24 08:09:20 51°11.463 2°45.644 258.4 15 253 10.3
2005-06-24 08:09:25 51°11.457 2°45.612 258.2 15 253 10.3
2005-06-24 08:09:29 51°11.452 2°45.587 258.2 14.9 254 10.3
2005-06-24 08:09:35 51°11.446 2°45.552 258.4 14.9 253 10.3
2005-06-24 08:09:40 51°11.44 2°45.52 258.5 15 254 10.4
2005-06-24 08:09:45 51°11.434 2°45.485 258.9 14.9 254 10.3
2005-06-24 08:09:49 51°11.429 2°45.46 259 14.9 254 10.4
2005-06-24 08:09:55 51°11.422 2°45.425 259.1 14.9 254 10.4
2005-06-24 08:10:00 51°11.416 2°45.391 258.5 15 253 10.4
2005-06-24 08:10:05 51°11.41 2°45.359 258.3 15 253 10.4
2005-06-24 08:10:10 51°11.404 2°45.331 258.3 15 253 10.4
2005-06-24 08:10:15 51°11.398 2°45.296 258.4 15 253 10.5
2005-06-24 08:10:20 51°11.393 2°45.267 258.8 15 253 10.4
2005-06-24 08:10:25 51°11.386 2°45.233 259 15 253 10.5
2005-06-24 08:10:30 51°11.381 2°45.204 259 15 254 10.4
2005-06-24 08:10:35 51°11.375 2°45.172 258.6 15 253 10.5
2005-06-24 08:10:39 51°11.37 2°45.147 258.4 15 253 10.4
2005-06-24 08:10:45 51°11.362 2°45.106 258.4 14.9 253 10.5
2005-06-24 08:10:49 51°11.358 2°45.081 258.6 15 253 10.5
2005-06-24 08:10:55 51°11.351 2°45.046 258.4 15 253 10.5
2005-06-24 08:11:00 51°11.345 2°45.011 258.5 15 254 10.5
2005-06-24 08:11:05 51°11.339 2°44.979 258.5 15 254 10.5
2005-06-24 08:11:10 51°11.334 2°44.951 258.7 14.9 254 10.6
2005-06-24 08:11:15 51°11.328 2°44.919 258.6 14.9 254 10.5
2005-06-24 08:11:20 51°11.321 2°44.885 258.7 15 253 10.5
2005-06-24 08:11:25 51°11.315 2°44.853 258.4 14.9 253 10.6
2005-06-24 08:11:30 51°11.309 2°44.821 258.2 14.9 253 10.5
2005-06-24 08:11:35 51°11.304 2°44.793 258.1 15 253 10.5
2005-06-24 08:11:39 51°11.298 2°44.764 258.2 14.9 253 10.6
2005-06-24 08:11:45 51°11.291 2°44.726 258.2 14.9 253 10.5
2005-06-24 08:11:50 51°11.286 2°44.698 258.2 15 253 10.6
2005-06-24 08:11:55 51°11.28 2°44.663 258.5 14.9 254 10.6
2005-06-24 08:11:59 51°11.276 2°44.641 258.6 14.9 254 10.6
2005-06-24 08:12:05 51°11.269 2°44.6 258.9 14.9 254 10.6
2005-06-24 08:12:10 51°11.263 2°44.568 259 14.9 254 10.6
2005-06-24 08:12:15 51°11.257 2°44.536 258.7 14.9 253 10.6
2005-06-24 08:12:20 51°11.251 2°44.505 258.3 14.9 253 10.6
2005-06-24 08:12:25 51°11.245 2°44.473 258 15 253 10.6
2005-06-24 08:12:30 51°11.239 2°44.441 258 14.9 253 10.6
2005-06-24 08:12:35 51°11.233 2°44.412 257.9 15 253 10.6
2005-06-24 08:12:40 51°11.227 2°44.378 258 15 253 10.6
2005-06-24 08:12:45 51°11.221 2°44.349 258.3 15 253 10.6
2005-06-24 08:12:49 51°11.216 2°44.321 258.3 15 254 10.7
2005-06-24 08:12:55 51°11.21 2°44.286 258.4 15 254 10.7
2005-06-24 08:13:00 51°11.203 2°44.251 258.4 15 254 10.7
2005-06-24 08:13:05 51°11.198 2°44.219 258.4 14.9 254 10.6
2005-06-24 08:13:09 51°11.193 2°44.194 258.4 15 254 10.6
2005-06-24 08:13:15 51°11.186 2°44.159 258.6 15 254 10.7
2005-06-24 08:13:20 51°11.18 2°44.124 258.4 15 254 10.7
2005-06-24 08:13:25 51°11.174 2°44.096 258.2 15 253 10.7
2005-06-24 08:13:30 51°11.168 2°44.064 258 15 253 10.7
2005-06-24 08:13:35 51°11.162 2°44.029 257.7 15 253 10.7
2005-06-24 08:13:40 51°11.156 2°43.998 258.1 15 254 10.7
2005-06-24 08:13:45 51°11.15 2°43.966 258.3 15 254 10.7
2005-06-24 08:13:50 51°11.145 2°43.938 258.4 15 254 10.7
2005-06-24 08:13:55 51°11.139 2°43.906 258.4 15 254 10.7
2005-06-24 08:13:59 51°11.133 2°43.877 258.3 15 254 10.7
2005-06-24 08:14:05 51°11.126 2°43.839 258.1 15 254 10.7
2005-06-24 08:14:10 51°11.12 2°43.808 258 15 254 10.7
2005-06-24 08:14:15 51°11.115 2°43.779 258 15 253 10.7
2005-06-24 08:14:19 51°11.109 2°43.751 258 15 253 10.7
2005-06-24 08:14:25 51°11.102 2°43.713 258 15 253 10.7
2005-06-24 08:14:30 51°11.096 2°43.681 257.7 15 253 10.8
2005-06-24 08:14:35 51°11.091 2°43.653 257.7 15 253 10.7
2005-06-24 08:14:40 51°11.085 2°43.62 257.9 15.1 254 10.7
2005-06-24 08:14:45 51°11.078 2°43.585 257.9 15 253 10.8
2005-06-24 08:14:49 51°11.073 2°43.56 257.9 15 253 10.8
2005-06-24 08:14:55 51°11.067 2°43.525 257.9 15 253 10.7
2005-06-24 08:14:59 51°11.061 2°43.496 257.9 15 253 10.8
2005-06-24 08:15:05 51°11.054 2°43.458 257.9 14.9 253 10.7
2005-06-24 08:15:09 51°11.05 2°43.433 257.9 15 253 10.7
2005-06-24 08:15:15 51°11.043 2°43.398 258.1 15 253 10.8
2005-06-24 08:15:20 51°11.038 2°43.366 258.6 14.9 254 10.7
2005-06-24 08:15:25 51°11.031 2°43.332 258.3 14.9 254 10.8
2005-06-24 08:15:30 51°11.026 2°43.303 258.3 14.9 254 10.8
2005-06-24 08:15:35 51°11.019 2°43.268 258.2 14.9 254 10.8
2005-06-24 08:15:40 51°11.014 2°43.237 258.3 14.9 254 10.8
2005-06-24 08:15:45 51°11.008 2°43.205 258.5 15 254 10.8
2005-06-24 08:15:50 51°11.002 2°43.173 258.5 15 254 10.8
2005-06-24 08:15:55 51°10.997 2°43.145 258.5 15 253 10.8
2005-06-24 08:15:59 51°10.991 2°43.116 258.4 15 253 10.8
2005-06-24 08:16:05 51°10.984 2°43.078 258.2 15 253 10.8
2005-06-24 08:16:09 51°10.98 2°43.053 258.2 15 253 10.8
2005-06-24 08:16:15 51°10.973 2°43.014 258.2 15 253 10.8
2005-06-24 08:16:19 51°10.969 2°42.992 258.3 14.9 255 10.8
2005-06-24 08:16:25 51°10.962 2°42.951 259.1 14.9 255 10.8
2005-06-24 08:16:30 51°10.957 2°42.922 259.6 15 255 10.8
2005-06-24 08:16:35 51°10.951 2°42.887 260.1 15 256 10.8
2005-06-24 08:16:39 51°10.947 2°42.861 260.5 15 256 10.9
2005-06-24 08:16:45 51°10.941 2°42.823 260.8 15 256 10.9
2005-06-24 08:16:49 51°10.937 2°42.798 260.5 15 256 10.9
2005-06-24 08:16:55 51°10.931 2°42.762 260.2 15 256 10.9
2005-06-24 08:17:00 51°10.926 2°42.728 260.2 14.9 255 10.9
2005-06-24 08:17:05 51°10.921 2°42.699 260.2 14.9 255 10.9
2005-06-24 08:17:10 51°10.916 2°42.667 260.1 14.9 255 10.9
2005-06-24 08:17:15 51°10.911 2°42.635 260.4 14.9 256 10.9
2005-06-24 08:17:21 51°10.905 2°42.597 260.5 14.9 256 10.9
2005-06-24 08:17:25 51°10.9 2°42.568 260.5 14.9 256 10.8
2005-06-24 08:17:29 51°10.896 2°42.543 260.7 14.9 256 10.9
2005-06-24 08:17:35 51°10.89 2°42.504 260.9 14.9 256 10.9
2005-06-24 08:17:40 51°10.884 2°42.473 260.5 14.9 255 10.9
2005-06-24 08:17:45 51°10.879 2°42.441 260.1 14.9 255 10.9
2005-06-24 08:17:50 51°10.874 2°42.412 260.1 14.9 256 11
2005-06-24 08:17:55 51°10.869 2°42.377 260.1 14.9 256 10.9
2005-06-24 08:18:00 51°10.864 2°42.346 260.1 14.9 256 10.9
2005-06-24 08:18:05 51°10.859 2°42.314 260.3 14.9 256 10.9
2005-06-24 08:18:10 51°10.854 2°42.285 260.4 14.9 256 11
2005-06-24 08:18:15 51°10.849 2°42.253 260.4 14.9 256 10.9
2005-06-24 08:18:21 51°10.842 2°42.215 260.4 14.9 255 11
2005-06-24 08:18:25 51°10.838 2°42.187 260.3 14.9 255 11
2005-06-24 08:18:30 51°10.833 2°42.158 260.1 14.9 255 11
2005-06-24 08:18:35 51°10.828 2°42.126 259.9 14.9 255 10.9
2005-06-24 08:18:39 51°10.824 2°42.101 259.8 14.9 256 11
2005-06-24 08:18:45 51°10.817 2°42.06 260.1 14.9 256 11
2005-06-24 08:18:50 51°10.812 2°42.028 260.1 14.9 256 11
2005-06-24 08:18:54 51°10.808 2°42.002 260.3 14.9 256 11
2005-06-24 08:19:00 51°10.802 2°41.964 260.5 14.9 256 10.9
2005-06-24 08:19:05 51°10.797 2°41.933 260.7 14.9 256 10.9
2005-06-24 08:19:10 51°10.792 2°41.901 260.4 14.9 255 11
2005-06-24 08:19:15 51°10.787 2°41.868 260.2 14.9 255 11
2005-06-24 08:19:19 51°10.783 2°41.847 260.3 14.9 255 11
2005-06-24 08:19:25 51°10.777 2°41.805 260.3 14.9 256 11
2005-06-24 08:19:29 51°10.773 2°41.779 260.6 14.9 256 11
2005-06-24 08:19:35 51°10.767 2°41.744 260.9 14.9 256 11
2005-06-24 08:19:39 51°10.763 2°41.719 260.8 14.9 256 11.1
2005-06-24 08:19:45 51°10.756 2°41.678 260.4 14.9 256 11.1
2005-06-24 08:19:50 51°10.751 2°41.646 260.4 14.9 256 11.1
2005-06-24 08:19:55 51°10.747 2°41.617 260.2 14.9 256 11.1
2005-06-24 08:20:00 51°10.742 2°41.585 260.2 14.9 256 11.1
2005-06-24 08:20:05 51°10.736 2°41.551 260.2 14.9 256 11.1
2005-06-24 08:20:10 51°10.731 2°41.519 260.2 14.9 256 11.1
2005-06-24 08:20:15 51°10.726 2°41.49 260.3 14.8 256 11.1
2005-06-24 08:20:19 51°10.722 2°41.461 260.4 14.9 256 11.1
2005-06-24 08:20:25 51°10.716 2°41.424 260.5 14.9 256 11
2005-06-24 08:20:30 51°10.711 2°41.395 260.5 14.8 256 11.1
2005-06-24 08:20:35 51°10.707 2°41.363 260.7 14.8 256 11.1
2005-06-24 08:20:40 51°10.701 2°41.328 261 14.8 256 11.1
2005-06-24 08:20:45 51°10.696 2°41.296 261.1 14.8 256 11
2005-06-24 08:20:49 51°10.692 2°41.271 260.9 14.8 256 11.1
2005-06-24 08:20:55 51°10.687 2°41.236 260.9 14.8 256 11.1
2005-06-24 08:21:00 51°10.682 2°41.204 260.7 14.8 256 11.1
2005-06-24 08:21:05 51°10.676 2°41.17 260.3 14.8 256 11
2005-06-24 08:21:10 51°10.671 2°41.141 259.8 14.8 255 11.1
2005-06-24 08:21:15 51°10.666 2°41.109 259.7 14.8 256 11.1
2005-06-24 08:21:20 51°10.66 2°41.075 259.7 14.8 255 11.1
2005-06-24 08:21:25 51°10.655 2°41.043 259.8 14.8 255 11.1
2005-06-24 08:21:30 51°10.65 2°41.011 259.8 14.9 255 11.1
2005-06-24 08:21:35 51°10.645 2°40.979 259.8 14.9 255 11.1
2005-06-24 08:21:40 51°10.64 2°40.948 259.8 14.9 256 11.1
2005-06-24 08:21:45 51°10.634 2°40.916 259.8 14.9 255 11.1
2005-06-24 08:21:50 51°10.63 2°40.887 259.8 14.9 255 11.1
2005-06-24 08:21:54 51°10.625 2°40.859 259.8 14.9 255 11.2
2005-06-24 08:22:01 51°10.619 2°40.818 259.9 14.8 256 11.1
2005-06-24 08:22:05 51°10.614 2°40.789 260.4 14.8 256 11.2
2005-06-24 08:22:09 51°10.61 2°40.764 260.6 14.8 256 11.2
2005-06-24 08:22:15 51°10.604 2°40.725 260.5 14.8 256 11.2
2005-06-24 08:22:19 51°10.601 2°40.704 260.4 14.8 256 11.3
2005-06-24 08:22:25 51°10.595 2°40.662 260.4 14.8 256 11.3
2005-06-24 08:22:29 51°10.591 2°40.637 260.5 14.8 256 11.3
2005-06-24 08:22:35 51°10.585 2°40.602 260.5 14.8 256 11.4
2005-06-24 08:22:39 51°10.581 2°40.573 260.5 14.8 256 11.5
2005-06-24 08:22:45 51°10.575 2°40.536 260.6 14.8 256 11.5
2005-06-24 08:22:50 51°10.57 2°40.504 260.5 14.8 256 11.6
2005-06-24 08:22:55 51°10.565 2°40.472 260.1 14.8 256 11.6
2005-06-24 08:22:59 51°10.56 2°40.447 260.1 14.8 256 11.7
2005-06-24 08:23:05 51°10.554 2°40.41 260 14.8 256 11.8
2005-06-24 08:23:10 51°10.549 2°40.378 260 14.8 256 11.9
2005-06-24 08:23:15 51°10.545 2°40.35 259.8 14.8 256 11.9
2005-06-24 08:23:19 51°10.54 2°40.321 260.2 14.7 256 11.9
2005-06-24 08:23:25 51°10.535 2°40.284 260.4 14.7 256 12
2005-06-24 08:23:30 51°10.53 2°40.252 260.5 14.7 256 12
2005-06-24 08:23:35 51°10.525 2°40.221 260.5 14.7 256 12
2005-06-24 08:23:39 51°10.521 2°40.195 260.5 14.7 256 12.1
2005-06-24 08:23:45 51°10.515 2°40.158 260.3 14.7 256 12.1
2005-06-24 08:23:49 51°10.511 2°40.133 260.4 14.7 256 12.2
2005-06-24 08:23:55 51°10.505 2°40.095 260.6 14.7 256 12.2
2005-06-24 08:23:59 51°10.501 2°40.07 260.6 14.7 256 12.2
2005-06-24 08:24:05 51°10.495 2°40.032 260.5 14.7 256 12.3
2005-06-24 08:24:09 51°10.491 2°40.007 260.3 14.7 256 12.3
2005-06-24 08:24:15 51°10.485 2°39.969 260.3 14.7 256 12.4
2005-06-24 08:24:19 51°10.482 2°39.944 260.3 14.7 257 12.4
2005-06-24 08:24:25 51°10.476 2°39.907 260.5 14.7 257 12.5
2005-06-24 08:24:29 51°10.472 2°39.881 260.7 14.7 257 12.6
2005-06-24 08:24:35 51°10.467 2°39.847 260.9 14.7 256 12.6
2005-06-24 08:24:40 51°10.461 2°39.813 261 14.7 257 12.8
2005-06-24 08:24:45 51°10.456 2°39.781 260.7 14.7 256 12.8
2005-06-24 08:24:50 51°10.452 2°39.753 260.1 14.7 256 12.8
2005-06-24 08:24:55 51°10.447 2°39.721 260 14.7 256 12.8
2005-06-24 08:25:01 51°10.441 2°39.684 260 14.7 256 12.9
2005-06-24 08:25:05 51°10.437 2°39.655 260.3 14.7 256 12.9
2005-06-24 08:25:10 51°10.432 2°39.624 260.5 14.7 256 13
2005-06-24 08:25:15 51°10.427 2°39.595 260.8 14.7 256 13.1
2005-06-24 08:25:19 51°10.423 2°39.567 260.6 14.7 256 13.1
2005-06-24 08:25:25 51°10.417 2°39.529 260.3 14.7 256 13.1
2005-06-24 08:25:30 51°10.412 2°39.498 260.1 14.7 256 13.1
2005-06-24 08:25:35 51°10.407 2°39.47 260.1 14.7 256 13.2
2005-06-24 08:25:40 51°10.402 2°39.438 260.1 14.7 256 13.2
2005-06-24 08:25:45 51°10.396 2°39.404 260 14.7 255 13.2
2005-06-24 08:25:49 51°10.392 2°39.378 260 14.7 255 13.3
2005-06-24 08:25:55 51°10.386 2°39.34 259.9 14.7 255 13.4
2005-06-24 08:26:00 51°10.382 2°39.309 260.3 14.7 256 13.4
2005-06-24 08:26:05 51°10.377 2°39.278 260.5 14.7 256 13.5
2005-06-24 08:26:10 51°10.372 2°39.249 260.3 14.7 256 13.6
2005-06-24 08:26:15 51°10.367 2°39.218 260 14.7 256 13.6
2005-06-24 08:26:19 51°10.363 2°39.189 260.1 14.7 256 13.7
2005-06-24 08:26:25 51°10.357 2°39.152 260.5 14.7 256 13.6
2005-06-24 08:26:30 51°10.353 2°39.123 261.3 14.7 256 13.7
2005-06-24 08:26:35 51°10.349 2°39.092 262 14.7 258 13.8
2005-06-24 08:26:40 51°10.344 2°39.057 262.6 14.6 258 13.9
2005-06-24 08:26:45 51°10.34 2°39.025 262.7 14.6 257 14.1
2005-06-24 08:26:50 51°10.336 2°38.997 262.7 14.7 258 14.3
2005-06-24 08:26:55 51°10.332 2°38.965 262.3 14.7 258 14.1
2005-06-24 08:27:00 51°10.327 2°38.93 262 14.7 258 14.4
2005-06-24 08:27:05 51°10.322 2°38.899 262 14.7 257 14.4
2005-06-24 08:27:10 51°10.318 2°38.867 261.8 14.7 258 14.5
2005-06-24 08:27:15 51°10.314 2°38.839 262 14.7 257 14.6
2005-06-24 08:27:20 51°10.309 2°38.804 262.3 14.7 257 14.6
2005-06-24 08:27:25 51°10.305 2°38.772 262.7 14.7 257 14.7
2005-06-24 08:27:29 51°10.301 2°38.747 262.6 14.7 258 14.7
2005-06-24 08:27:35 51°10.296 2°38.712 262.2 14.7 258 14.7
2005-06-24 08:27:40 51°10.291 2°38.677 262 14.7 258 14.7
2005-06-24 08:27:45 51°10.287 2°38.646 262 14.7 257 14.8
2005-06-24 08:27:49 51°10.284 2°38.62 261.9 14.7 257 14.7
2005-06-24 08:27:55 51°10.278 2°38.582 262.3 14.7 257 14.7
2005-06-24 08:27:58 51°10.276 2°38.563 262.4 14.7 258 14.8
2005-06-24 08:28:05 51°10.27 2°38.519 262.6 14.7 258 14.5
2005-06-24 08:28:10 51°10.266 2°38.49 262.7 14.7 258 14.3
2005-06-24 08:28:15 51°10.262 2°38.458 262.7 14.7 258 14.3
2005-06-24 08:28:21 51°10.257 2°38.42 262.7 14.7 258 14.4
2005-06-24 08:28:25 51°10.252 2°38.392 262.4 14.7 258 14.4
2005-06-24 08:28:29 51°10.249 2°38.366 262 14.8 257 14.5
2005-06-24 08:28:35 51°10.244 2°38.331 262 14.8 258 14.6
2005-06-24 08:28:39 51°10.241 2°38.306 262.3 14.8 258 14.7
2005-06-24 08:28:45 51°10.235 2°38.265 262.3 14.8 258 14.8
2005-06-24 08:28:49 51°10.231 2°38.239 262.5 14.7 258 14.9
2005-06-24 08:28:55 51°10.227 2°38.204 262.6 14.7 258 14.9
2005-06-24 08:29:00 51°10.222 2°38.169 262.9 14.8 258 14.9
2005-06-24 08:29:05 51°10.218 2°38.137 262.9 14.8 258 15.1
2005-06-24 08:29:10 51°10.214 2°38.108 262.9 14.8 258 15
2005-06-24 08:29:15 51°10.21 2°38.076 263 14.8 258 15.3
2005-06-24 08:29:19 51°10.206 2°38.047 262.7 14.8 258 15.1
2005-06-24 08:29:25 51°10.2 2°38.009 262.6 14.8 258 15.6
2005-06-24 08:29:30 51°10.197 2°37.98 262.7 14.8 258 15.4
2005-06-24 08:29:35 51°10.192 2°37.949 262.7 14.8 258 15.4
2005-06-24 08:29:40 51°10.188 2°37.914 263 14.8 258 15.2
2005-06-24 08:29:45 51°10.183 2°37.882 263 14.8 258 15.3
2005-06-24 08:29:50 51°10.179 2°37.85 262.6 14.8 258 15.6
2005-06-24 08:29:55 51°10.175 2°37.821 262.4 14.8 258 15.7
2005-06-24 08:29:59 51°10.172 2°37.796 262.4 14.8 258 15.7
2005-06-24 08:30:05 51°10.166 2°37.754 262.7 14.8 258 15.8
2005-06-24 08:30:09 51°10.163 2°37.729 262.7 14.8 258 15.9
2005-06-24 08:30:15 51°10.157 2°37.691 262.6 14.8 257 15.9
2005-06-24 08:30:19 51°10.154 2°37.668 262 14.8 257 15.9
2005-06-24 08:30:25 51°10.148 2°37.627 261.9 14.8 257 16.1
2005-06-24 08:30:29 51°10.144 2°37.602 261.9 14.8 257 16.2
2005-06-24 08:30:35 51°10.14 2°37.566 262 14.8 258 16.2
2005-06-24 08:30:40 51°10.135 2°37.531 262.4 14.8 258 16.4
2005-06-24 08:30:45 51°10.131 2°37.502 262.5 14.8 258 16.3
2005-06-24 08:30:50 51°10.126 2°37.47 262.7 14.9 258 16.3
2005-06-24 08:30:55 51°10.122 2°37.438 262.7 14.9 258 16.3
2005-06-24 08:31:00 51°10.117 2°37.403 262.6 14.8 258 16.3
2005-06-24 08:31:05 51°10.113 2°37.371 262.6 14.8 258 16.2
2005-06-24 08:31:10 51°10.109 2°37.343 262.3 14.8 257 16.2
2005-06-24 08:31:15 51°10.104 2°37.31 262 14.8 257 16.1
2005-06-24 08:31:20 51°10.099 2°37.276 262 14.8 257 16.4
2005-06-24 08:31:25 51°10.094 2°37.244 261.8 14.9 257 16.4
2005-06-24 08:31:30 51°10.09 2°37.215 262.1 14.8 257 16.5
2005-06-24 08:31:35 51°10.085 2°37.18 262.1 14.8 257 16.5
2005-06-24 08:31:39 51°10.082 2°37.158 262 14.8 258 16.3
2005-06-24 08:31:45 51°10.076 2°37.116 262.1 14.8 257 16.5
2005-06-24 08:31:49 51°10.073 2°37.09 262.3 14.8 257 16.5
2005-06-24 08:31:54 51°10.068 2°37.058 262.3 14.8 257 16.6
2005-06-24 08:32:01 51°10.063 2°37.017 262.6 14.9 258 16.6
2005-06-24 08:32:05 51°10.059 2°36.988 262.8 14.8 258 16.4
2005-06-24 08:32:09 51°10.056 2°36.963 262.9 14.8 258 16.5
2005-06-24 08:32:15 51°10.05 2°36.924 263 14.8 258 16.5
2005-06-24 08:32:19 51°10.047 2°36.898 262.7 14.8 257 16.4
2005-06-24 08:32:25 51°10.042 2°36.861 262.2 14.8 257 16.5
2005-06-24 08:32:30 51°10.038 2°36.832 262 14.8 257 16.6
2005-06-24 08:32:35 51°10.033 2°36.797 261.8 14.8 257 16.5
2005-06-24 08:32:39 51°10.029 2°36.775 261.7 14.7 257 16.4
2005-06-24 08:32:45 51°10.024 2°36.734 261.9 14.7 257 16
2005-06-24 08:32:50 51°10.019 2°36.702 262 14.7 258 16.4
2005-06-24 08:32:55 51°10.015 2°36.67 262 14.7 257 16.3
2005-06-24 08:32:59 51°10.011 2°36.645 262 14.7 257 16.2
2005-06-24 08:33:05 51°10.006 2°36.607 261.7 14.7 257 16.5
2005-06-24 08:33:10 51°10.002 2°36.578 261.5 14.7 258 16.3
2005-06-24 08:33:15 51°10 2°36.542 262.2 14.7 258 16.2
2005-06-24 08:33:20 51°9.998 2°36.51 266.8 14.7 265 16.3
2005-06-24 08:33:25 51°9.998 2°36.478 270.9 14.7 266 16.3
2005-06-24 08:33:30 51°9.998 2°36.449 274 14.7 269 16.4
2005-06-24 08:33:35 51°9.999 2°36.417 276.4 14.7 269 16.2
2005-06-24 08:33:40 51°10 2°36.382 278.2 14.6 272 16.5
2005-06-24 08:33:45 51°10.001 2°36.349 279.7 14.6 272 16.6
2005-06-24 08:33:50 51°10.003 2°36.317 280.7 14.7 274 16.6
2005-06-24 08:33:55 51°10.005 2°36.288 281.5 14.7 275 16.6
2005-06-24 08:34:00 51°10.007 2°36.256 282.3 14.6 276 16.7
2005-06-24 08:34:05 51°10.009 2°36.221 282.5 14.6 276 16.7
2005-06-24 08:34:09 51°10.01 2°36.195 282.5 14.6 276 16.7
2005-06-24 08:34:15 51°10.013 2°36.156 282.7 14.6 276 16.7
2005-06-24 08:34:20 51°10.015 2°36.125 282.7 14.6 276 16.7
2005-06-24 08:34:25 51°10.017 2°36.093 282.6 14.6 276 16.5
2005-06-24 08:34:29 51°10.018 2°36.067 282.1 14.6 275 16.4
2005-06-24 08:34:35 51°10.02 2°36.032 282 14.6 275 16.4
2005-06-24 08:34:39 51°10.022 2°36.003 282.3 14.5 276 16.3
2005-06-24 08:34:45 51°10.025 2°35.966 282.1 14.5 276 16.2
2005-06-24 08:34:49 51°10.029 2°35.942 283.7 14.5 276 15.9
2005-06-24 08:34:55 51°10.034 2°35.908 287.4 14.5 276 15.8
2005-06-24 08:34:59 51°10.038 2°35.885 290.3 14.1 285 15.6
2005-06-24 08:35:05 51°10.046 2°35.846 292.6 14.1 285 15.4
2005-06-24 08:35:10 51°10.052 2°35.817 293.6 13.9 288 14.8
2005-06-24 08:35:15 51°10.06 2°35.789 294.9 13.9 288 14.6
2005-06-24 08:35:19 51°10.067 2°35.767 299 13.8 296 13.9
2005-06-24 08:35:25 51°10.078 2°35.736 303 13.8 296 13.2
2005-06-24 08:35:30 51°10.088 2°35.714 306.5 13.7 300 12.5
2005-06-24 08:35:35 51°10.1 2°35.688 311 13.7 300 12.1
2005-06-24 08:35:39 51°10.11 2°35.67 314.4 13.4 309 11.3
2005-06-24 08:35:45 51°10.124 2°35.643 317.2 13.3 310 10.6
2005-06-24 08:35:50 51°10.136 2°35.623 319 13.3 310 10.1
2005-06-24 08:35:55 51°10.149 2°35.603 320.8 13 315 9.9
2005-06-24 08:35:59 51°10.159 2°35.592 325.8 12.7 322 9.7
2005-06-24 08:36:05 51°10.178 2°35.571 330.9 12.7 322 9.4
2005-06-24 08:36:09 51°10.19 2°35.56 334.5 12.7 322 9.7
2005-06-24 08:36:15 51°10.209 2°35.545 338.1 12.6 331 9.7
2005-06-24 08:36:20 51°10.224 2°35.534 340.5 12.5 332 9.7
2005-06-24 08:36:25 51°10.24 2°35.525 343.8 12.5 336 9.7
2005-06-24 08:36:30 51°10.257 2°35.517 347.6 12.4 342 9.7
2005-06-24 08:36:35 51°10.274 2°35.512 350.8 12.3 346 9.8
2005-06-24 08:36:40 51°10.29 2°35.51 355.1 12.2 352 10
2005-06-24 08:36:45 51°10.307 2°35.509 2 12.1 356 10
2005-06-24 08:36:50 51°10.324 2°35.51 5.1 12.1 -999 9.8
2005-06-24 08:36:55 51°10.339 2°35.512 7.5 12.1 2 9.9
2005-06-24 08:37:00 51°10.357 2°35.517 10 12.1 2 9.7
2005-06-24 08:37:05 51°10.373 2°35.524 15.2 12.1 2 9.7
2005-06-24 08:37:09 51°10.385 2°35.532 22 12.1 2 9.6
2005-06-24 08:37:15 51°10.403 2°35.544 25.4 11.8 21 9.6
2005-06-24 08:37:20 51°10.417 2°35.555 28.4 11.7 23 9.6
2005-06-24 08:37:25 51°10.432 2°35.567 31.2 11.7 27 9.4
2005-06-24 08:37:30 51°10.444 2°35.579 32.6 11.7 28 9.4
2005-06-24 08:37:35 51°10.46 2°35.593 34.1 11.7 30 9.2
2005-06-24 08:37:39 51°10.469 2°35.603 35.5 11.7 33 9.2
2005-06-24 08:37:45 51°10.486 2°35.623 37.8 11.7 34 9.2
2005-06-24 08:37:50 51°10.499 2°35.639 40.2 11.7 37 9.1
2005-06-24 08:37:55 51°10.511 2°35.656 41.9 11.6 39 8.9
2005-06-24 08:37:59 51°10.521 2°35.669 43.4 11.7 40 9.2
2005-06-24 08:38:05 51°10.536 2°35.69 44.2 11.7 41 9.1
2005-06-24 08:38:10 51°10.548 2°35.707 44.9 11.7 41 9.2
2005-06-24 08:38:15 51°10.559 2°35.722 45 11.8 41 9.1
2005-06-24 08:38:21 51°10.574 2°35.742 45 11.8 41 9.2
2005-06-24 08:38:25 51°10.584 2°35.756 44.7 11.8 40 9.2
2005-06-24 08:38:30 51°10.597 2°35.772 44.3 11.8 40 9.2
2005-06-24 08:38:35 51°10.611 2°35.791 44.1 11.8 40 9.3
2005-06-24 08:38:41 51°10.624 2°35.809 43.8 11.9 39 9.2
2005-06-24 08:38:45 51°10.636 2°35.824 43.7 11.8 40 9.4
2005-06-24 08:38:49 51°10.646 2°35.838 43.8 11.8 40 9.2
2005-06-24 08:38:55 51°10.66 2°35.856 43.8 11.8 40 9.5
2005-06-24 08:38:59 51°10.67 2°35.87 43.7 11.9 40 9.2
2005-06-24 08:39:05 51°10.686 2°35.891 43.8 11.9 40 9.5
2005-06-24 08:39:09 51°10.696 2°35.905 44 11.9 40 9.4
2005-06-24 08:39:15 51°10.711 2°35.925 44.4 11.8 41 9.5
2005-06-24 08:39:20 51°10.724 2°35.942 44.5 11.8 41 9.4
2005-06-24 08:39:25 51°10.736 2°35.96 44.7 11.8 41 9.6
2005-06-24 08:39:30 51°10.747 2°35.975 44.9 11.8 40 9.6
2005-06-24 08:39:35 51°10.761 2°35.994 44.8 11.8 41 9.6
2005-06-24 08:39:39 51°10.77 2°36.005 44.5 11.9 40 9.7
2005-06-24 08:39:45 51°10.786 2°36.027 44.2 11.9 40 9.7
2005-06-24 08:39:49 51°10.797 2°36.041 44.2 11.9 40 9.5
2005-06-24 08:39:55 51°10.812 2°36.062 44.5 11.9 41 9.9
2005-06-24 08:39:59 51°10.821 2°36.075 44.6 11.8 41 9.7
2005-06-24 08:40:05 51°10.836 2°36.096 44.6 11.8 41 9.9
2005-06-24 08:40:10 51°10.848 2°36.113 44.9 11.8 41 9.8
2005-06-24 08:40:15 51°10.859 2°36.129 45 11.8 41 9.8
2005-06-24 08:40:21 51°10.874 2°36.149 45 11.8 41 10.1
2005-06-24 08:40:25 51°10.884 2°36.163 45 11.8 41 9.9
2005-06-24 08:40:30 51°10.897 2°36.18 44.8 11.8 41 10
2005-06-24 08:40:35 51°10.911 2°36.198 44.5 11.8 41 10.1
2005-06-24 08:40:41 51°10.924 2°36.217 44.5 11.8 41 10.2
2005-06-24 08:40:45 51°10.936 2°36.232 44.5 11.8 41 10.2
2005-06-24 08:40:49 51°10.946 2°36.246 44.6 11.8 41 10.4
2005-06-24 08:40:55 51°10.959 2°36.265 44.8 11.9 41 10.4
2005-06-24 08:40:59 51°10.969 2°36.278 44.8 11.8 41 10.3
2005-06-24 08:41:05 51°10.985 2°36.301 44.8 11.8 41 10.3
2005-06-24 08:41:09 51°10.995 2°36.315 45 11.8 41 10.3
2005-06-24 08:41:15 51°11.01 2°36.335 45.4 11.8 41 10.5
2005-06-24 08:41:19 51°11.019 2°36.347 45.1 11.9 41 10.4
2005-06-24 08:41:25 51°11.035 2°36.37 45 11.8 41 10.5
2005-06-24 08:41:30 51°11.046 2°36.385 45 11.8 41 10.6
2005-06-24 08:41:35 51°11.06 2°36.404 45 11.8 41 10.6
2005-06-24 08:41:39 51°11.068 2°36.416 45 11.8 41 10.7
2005-06-24 08:41:45 51°11.084 2°36.438 45.3 11.8 42 10.6
2005-06-24 08:41:50 51°11.096 2°36.456 45.4 11.8 41 10.7
2005-06-24 08:41:55 51°11.109 2°36.473 45.4 11.8 41 10.8
2005-06-24 08:41:59 51°11.118 2°36.487 45.4 11.8 41 10.8
2005-06-24 08:42:05 51°11.133 2°36.507 45.3 11.8 41 10.8
2005-06-24 08:42:10 51°11.145 2°36.524 45.3 11.8 41 10.9
2005-06-24 08:42:15 51°11.157 2°36.539 45.1 11.7 41 11
2005-06-24 08:42:20 51°11.17 2°36.558 45.1 11.7 41 11
2005-06-24 08:42:25 51°11.181 2°36.573 44.8 11.8 40 11
2005-06-24 08:42:30 51°11.194 2°36.59 44.8 11.8 40 11.1
2005-06-24 08:42:35 51°11.207 2°36.609 45 11.8 41 11.1
2005-06-24 08:42:41 51°11.221 2°36.627 45 11.8 41 11.1
2005-06-24 08:42:45 51°11.232 2°36.643 45 11.7 41 11.2
2005-06-24 08:42:49 51°11.242 2°36.656 45 11.7 41 11.1
2005-06-24 08:42:55 51°11.256 2°36.675 45 11.8 41 11.2
2005-06-24 08:42:59 51°11.265 2°36.688 44.8 11.7 40 11.1
2005-06-24 08:43:05 51°11.282 2°36.71 44.7 11.7 40 11.3
2005-06-24 08:43:09 51°11.292 2°36.723 44.7 11.7 40 11.2
2005-06-24 08:43:15 51°11.307 2°36.744 44.7 11.7 41 11.2
2005-06-24 08:43:19 51°11.315 2°36.755 44.9 11.7 41 11.3
2005-06-24 08:43:25 51°11.331 2°36.777 45 11.7 41 11.3
2005-06-24 08:43:30 51°11.342 2°36.793 45.4 11.7 41 11.2
2005-06-24 08:43:35 51°11.356 2°36.812 45.5 11.7 41 11.4
2005-06-24 08:43:39 51°11.364 2°36.823 45.5 11.7 41 11.4
2005-06-24 08:43:45 51°11.38 2°36.846 45.4 11.7 41 11.6
2005-06-24 08:43:50 51°11.393 2°36.862 45.1 11.7 41 11.5
2005-06-24 08:43:55 51°11.405 2°36.879 45 11.7 41 11.3
2005-06-24 08:43:59 51°11.415 2°36.893 45 11.8 40 11.5
2005-06-24 08:44:05 51°11.43 2°36.912 45 11.8 41 11.7
2005-06-24 08:44:10 51°11.443 2°36.928 44.2 11.7 39 11.8
2005-06-24 08:44:15 51°11.454 2°36.942 43 11.8 38 11.7
2005-06-24 08:44:20 51°11.469 2°36.959 42.3 11.8 38 11.8
2005-06-24 08:44:25 51°11.481 2°36.973 41.6 11.8 36 11.7
2005-06-24 08:44:30 51°11.494 2°36.988 41 11.8 36 11.7
2005-06-24 08:44:35 51°11.509 2°37.005 40.9 11.8 36 11.9
2005-06-24 08:44:39 51°11.519 2°37.017 40.6 11.7 36 11.8
2005-06-24 08:44:45 51°11.535 2°37.035 40.6 11.7 36 11.9
2005-06-24 08:44:49 51°11.546 2°37.047 40.6 11.7 36 11.9
2005-06-24 08:44:55 51°11.561 2°37.063 40.6 11.7 36 11.7
2005-06-24 08:44:59 51°11.571 2°37.076 40.7 11.7 36 11.7
2005-06-24 08:45:05 51°11.589 2°37.095 40.7 11.7 36 11.7
2005-06-24 08:45:09 51°11.599 2°37.107 40.5 11.7 36 11.8
2005-06-24 08:45:15 51°11.616 2°37.125 40.3 11.8 35 11.9
2005-06-24 08:45:20 51°11.629 2°37.139 39.9 11.8 34 11.9
2005-06-24 08:45:25 51°11.642 2°37.154 39.9 11.8 35 11.9
2005-06-24 08:45:30 51°11.655 2°37.167 40 11.8 35 12
2005-06-24 08:45:35 51°11.669 2°37.184 40 11.8 34 11.9
2005-06-24 08:45:39 51°11.679 2°37.194 39.8 11.7 34 12
2005-06-24 08:45:45 51°11.696 2°37.212 39.2 11.7 34 12
2005-06-24 08:45:50 51°11.71 2°37.226 39 11.7 33 12
2005-06-24 08:45:55 51°11.724 2°37.241 38.8 11.8 33 11.9
2005-06-24 08:45:59 51°11.735 2°37.252 38.6 11.7 33 12
2005-06-24 08:46:05 51°11.751 2°37.269 38.6 11.7 33 12
2005-06-24 08:46:10 51°11.765 2°37.283 38.7 11.7 33 11.8
2005-06-24 08:46:15 51°11.777 2°37.296 38.7 11.8 33 11.9
2005-06-24 08:46:20 51°11.792 2°37.312 38.8 11.8 33 12
2005-06-24 08:46:25 51°11.804 2°37.325 38.9 11.7 34 11.6
2005-06-24 08:46:30 51°11.818 2°37.339 38.9 11.8 34 11.8
2005-06-24 08:46:35 51°11.833 2°37.355 39.1 11.8 34 11.7
2005-06-24 08:46:39 51°11.844 2°37.367 39.1 11.8 34 11.9
2005-06-24 08:46:45 51°11.86 2°37.384 39.1 11.8 34 11.9
2005-06-24 08:46:49 51°11.871 2°37.395 39.1 11.8 34 11.8
2005-06-24 08:46:55 51°11.886 2°37.411 39.1 11.8 34 11.9
2005-06-24 08:46:59 51°11.897 2°37.423 39.1 11.8 33 11.9
2005-06-24 08:47:05 51°11.914 2°37.441 39 11.8 33 11.9
2005-06-24 08:47:09 51°11.925 2°37.453 38.7 11.8 33 11.9
2005-06-24 08:47:15 51°11.942 2°37.47 39 11.8 34 11.7
2005-06-24 08:47:20 51°11.955 2°37.484 39.1 11.8 34 11.9
2005-06-24 08:47:25 51°11.969 2°37.498 39.1 11.8 33 11.6
2005-06-24 08:47:30 51°11.981 2°37.511 38.8 11.8 33 12
2005-06-24 08:47:35 51°11.996 2°37.527 38.7 11.7 33 12
2005-06-24 08:47:39 51°12.006 2°37.537 38.9 11.8 33 11.9
2005-06-24 08:47:45 51°12.024 2°37.555 38.8 11.8 33 11.8
2005-06-24 08:47:50 51°12.037 2°37.569 38.8 11.8 33 11.8
2005-06-24 08:47:55 51°12.051 2°37.584 38.8 11.8 34 11.8
2005-06-24 08:47:59 51°12.062 2°37.596 39.1 11.8 34 11.9
2005-06-24 08:48:05 51°12.078 2°37.613 39.1 11.8 34 11.9
2005-06-24 08:48:10 51°12.091 2°37.627 39.1 11.8 34 11.8
2005-06-24 08:48:15 51°12.104 2°37.641 39.1 11.8 34 11.9
2005-06-24 08:48:20 51°12.118 2°37.657 39.5 11.8 34 12
2005-06-24 08:48:25 51°12.13 2°37.67 39.7 11.7 34 11.9
2005-06-24 08:48:30 51°12.144 2°37.684 39.5 11.8 34 11.7
2005-06-24 08:48:35 51°12.159 2°37.7 39.2 11.8 34 11.7
2005-06-24 08:48:40 51°12.173 2°37.714 39.1 11.8 34 11.8
2005-06-24 08:48:45 51°12.185 2°37.727 39.1 11.7 34 11.7
2005-06-24 08:48:50 51°12.198 2°37.742 39.1 11.7 34 11.9
2005-06-24 08:48:55 51°12.212 2°37.757 39.4 11.7 34 11.9
2005-06-24 08:48:59 51°12.224 2°37.77 39.6 11.7 34 11.8
2005-06-24 08:49:05 51°12.24 2°37.787 39.7 11.7 34 11.7
2005-06-24 08:49:09 51°12.251 2°37.798 39.4 11.8 33 11.9
2005-06-24 08:49:15 51°12.266 2°37.814 39.1 11.8 33 12
2005-06-24 08:49:20 51°12.281 2°37.829 38.6 11.8 32 11.9
2005-06-24 08:49:25 51°12.295 2°37.843 38.6 11.7 33 11.9
2005-06-24 08:49:30 51°12.307 2°37.856 38.5 11.7 33 11.5
2005-06-24 08:49:35 51°12.321 2°37.87 38.6 11.7 33 11.9
2005-06-24 08:49:40 51°12.336 2°37.886 38.9 11.7 33 11.8
2005-06-24 08:49:45 51°12.349 2°37.901 39.1 11.7 34 11.8
2005-06-24 08:49:49 51°12.36 2°37.912 39.4 11.7 34 12
2005-06-24 08:49:55 51°12.376 2°37.929 39.5 11.7 34 11.8
2005-06-24 08:50:00 51°12.39 2°37.943 39.5 11.7 34 11.9
2005-06-24 08:50:05 51°12.403 2°37.958 39.4 11.7 34 11.8
2005-06-24 08:50:10 51°12.417 2°37.972 39.4 11.7 34 12
2005-06-24 08:50:15 51°12.429 2°37.985 39.4 11.7 34 12
2005-06-24 08:50:20 51°12.444 2°38.001 39.4 11.7 34 11.7
2005-06-24 08:50:25 51°12.457 2°38.015 39.4 11.7 34 12
2005-06-24 08:50:29 51°12.468 2°38.027 39.4 11.7 33 11.9
2005-06-24 08:50:35 51°12.483 2°38.042 39.4 11.7 34 11.9
2005-06-24 08:50:40 51°12.498 2°38.058 39.4 11.7 33 11.9
2005-06-24 08:50:45 51°12.511 2°38.072 39.2 11.7 33 11.8
2005-06-24 08:50:49 51°12.522 2°38.083 39.1 11.7 33 11.9
2005-06-24 08:50:54 51°12.535 2°38.096 39 11.7 33 12
2005-06-24 08:51:00 51°12.552 2°38.114 38.7 11.7 33 12.1
2005-06-24 08:51:05 51°12.566 2°38.128 38.7 11.7 33 12.1
2005-06-24 08:51:10 51°12.578 2°38.14 38.7 11.7 33 12.1
2005-06-24 08:51:15 51°12.592 2°38.155 39.1 11.7 33 11.9
2005-06-24 08:51:19 51°12.604 2°38.167 39.1 11.7 33 12.1
2005-06-24 08:51:25 51°12.621 2°38.184 39.1 11.7 33 12
2005-06-24 08:51:30 51°12.634 2°38.198 38.9 11.7 33 11.9
2005-06-24 08:51:35 51°12.648 2°38.212 38.6 11.7 33 12.2
2005-06-24 08:51:39 51°12.657 2°38.222 38.8 11.7 33 12.1
2005-06-24 08:51:46 51°12.676 2°38.241 39 11.7 33 12.2
2005-06-24 08:51:50 51°12.689 2°38.254 39.2 11.7 33 12.1
2005-06-24 08:51:55 51°12.702 2°38.268 39.3 11.7 33 11.8
2005-06-24 08:52:00 51°12.716 2°38.282 39.2 11.7 33 11.9
2005-06-24 08:52:05 51°12.729 2°38.296 39.1 11.7 33 12.2
2005-06-24 08:52:10 51°12.743 2°38.31 39.1 11.7 33 12.2
2005-06-24 08:52:15 51°12.757 2°38.324 39.1 11.7 33 12
2005-06-24 08:52:20 51°12.77 2°38.338 39.1 11.7 33 12.1
2005-06-24 08:52:25 51°12.784 2°38.352 38.9 11.7 33 12.3
2005-06-24 08:52:30 51°12.797 2°38.366 38.9 11.7 33 12.2
2005-06-24 08:52:35 51°12.81 2°38.379 39 11.7 33 12.1
2005-06-24 08:52:40 51°12.825 2°38.394 39.1 11.7 33 12.2
2005-06-24 08:52:45 51°12.838 2°38.409 39.3 11.7 33 12.2
2005-06-24 08:52:50 51°12.851 2°38.423 39.5 11.7 34 12.3
2005-06-24 08:52:55 51°12.865 2°38.438 39.8 11.7 34 12.4
2005-06-24 08:52:59 51°12.876 2°38.449 39.5 11.7 34 12.3
2005-06-24 08:53:05 51°12.892 2°38.466 39.4 11.7 34 12.4
2005-06-24 08:53:10 51°12.906 2°38.481 39.5 11.7 34 12.5
2005-06-24 08:53:15 51°12.918 2°38.493 39.6 11.7 33 12.5
2005-06-24 08:53:19 51°12.93 2°38.506 39.3 11.7 33 12.6
2005-06-24 08:53:25 51°12.947 2°38.521 38.5 11.7 33 12.5
2005-06-24 08:53:29 51°12.959 2°38.531 36.8 11.7 29 12.6
2005-06-24 08:53:35 51°12.975 2°38.544 35 11.7 27 12.7
2005-06-24 08:53:39 51°12.987 2°38.553 34.1 11.7 26 12.7
2005-06-24 08:53:45 51°13.006 2°38.566 33 11.7 26 12.7
2005-06-24 08:53:50 51°13.021 2°38.576 31.4 11.8 23 12.7
2005-06-24 08:53:55 51°13.035 2°38.584 30.3 11.8 22 12.8